Meteo Giornale » Osservazioni meteo Stati Uniti (USA) » Lamar
ore: 09:53 - Osservazioni Meteo Lamar
Lat. 38° 4' N Lon. 102° 41' W Alt. 1128 metri s.l.m.
25 °C
Sereno
Temp. 24 Ore
17 °C
34 °C
Nord
7.4 Km/h
Dew point 18 °C
Umidità 65 %
Visibilità 10 Km
Il sole sorge alle ore 06:19
Il sole tramonta alle ore 19:21
| Data e Ora | Cielo e Fenomeni | T °C | DP °C | Um. % | Pres. hPa | Vis. km | Vento km/h | |
|---|---|---|---|---|---|---|---|---|
| Oggi h: 09:53 | Sereno | 25 | 18 | 65 | 1019 | 10 | N 7.4 | |
| Oggi h: 08:53 | Sereno | 24 | 17 | 64 | 1019 | 10 | O/NO 7.4 | |
| Oggi h: 07:53 | Sereno | 21 | 17 | 77 | 1019 | 10 | N 0 | |
| Oggi h: 06:53 | Sereno | 17 | 16 | 93 | 1019 | 10 | O 7.4 | |
| Oggi h: 05:53 | Sereno | 17 | 17 | 100 | 1018 | 10 | S 11.1 | |
| Oggi h: 04:53 | Sereno | 17 | 17 | 100 | 1017 | 10 | S 9.3 | |
| Oggi h: 03:53 | Sereno | 17 | 17 | 100 | 1018 | 10 | S/SO 13 | |
| Oggi h: 02:53 | Sereno | 18 | 17 | 93 | 1018 | 10 | O 13 | |
| Oggi h: 01:53 | Poco Nuvoloso | 19 | 16 | 82 | 1017 | 10 | N/NE 9.3 | |
| Oggi h: 01:36 | Molto Nuvoloso | 19 | 16 | 82 | 1018 | 10 | E/NE 14.8 | |
| Oggi h: 01:23 | Temporale nelle vicinanze | 21 | 16 | 73 | 1018 | 10 | N 18.5 | |
| Oggi h: 00:53 | Temporale | 21 | 16 | 73 | 1018 | 10 | N/NE 16.7 | |
| Oggi h: 00:46 | Temporale | 21 | 16 | 73 | 1019 | 10 | N/NO 14.8 | |
| Oggi h: 00:26 | Temporale nelle vicinanze | 21 | 16 | 73 | 1019 | 10 | N/NO 11.1 | |
| Ieri h: 23:53 | Sereno | 21 | 15 | 68 | 1017 | 10 | NE 16.7 | |
| Ieri h: 23:29 | Poco Nuvoloso | 21 | 16 | 73 | 1017 | 10 | N 18.5 | |
| Ieri h: 23:12 | Temporale nelle vicinanze Pioggia | 21 | 16 | 73 | 1016 | 10 | E/SE 18.5 | |
| Ieri h: 23:03 | Temporale | 21 | 16 | 73 | 1016 | 14 | E 20.3 | |
| Ieri h: 22:53 | Temporale nelle vicinanze Pioggia | 22 | 15 | 64 | 1016 | 10 | E 25.9 | |
| Ieri h: 22:41 | Temporale nelle vicinanze | 22 | 15 | 64 | 1018 | 10 | O/SO 16.7 | |
| Ieri h: 21:53 | Sereno | 23 | 13 | 53 | 1016 | 10 | E/NE 14.8 | |
| Ieri h: 20:53 | Sereno | 24 | 14 | 53 | 1015 | 10 | N 16.7 | |
| Ieri h: 19:53 | Nuvoloso | 24 | 18 | 69 | 1015 | 10 | N 0 | |
| Ieri h: 19:51 | Poco Nuvoloso | 24 | 18 | 69 | 1015 | 10 | S/SO 7.4 | |
| Ieri h: 19:36 | Temporale nelle vicinanze | 26 | 16 | 54 | 1014 | 10 | N 0 | |
| Ieri h: 18:53 | Nuvoloso | 27 | 18 | 57 | 1014 | 10 | E/SE 11.1 | |
| Ieri h: 18:45 | Poco Nuvoloso | 27 | 17 | 54 | 1014 | 10 | E 9.3 | |
| Ieri h: 18:35 | Temporale nelle vicinanze | 27 | 17 | 54 | 1014 | 10 | E/SE 16.7 | |
| Ieri h: 18:03 | Temporale | 31 | 18 | 45 | 1014 | 10 | N 5.5 | |
| Ieri h: 17:53 | Poco Nuvoloso | 32 | 14 | 33 | 1014 | 10 | N 0 | |
| Ieri h: 16:53 | Sereno | 33 | 12 | 27 | 1013 | 10 | N 11.1 | |
| Ieri h: 15:53 | Sereno | 34 | 14 | 30 | 1014 | 10 | N 0 | |
| Ieri h: 14:53 | Sereno | 33 | 14 | 31 | 1014 | 10 | N 0 | |
| Ieri h: 13:53 | Sereno | 33 | 14 | 31 | 1015 | 10 | N 5.5 | |
| Ieri h: 12:53 | Sereno | 31 | 16 | 40 | 1015 | 10 | N 7.4 | |
| Ieri h: 11:53 | Sereno | 29 | 15 | 42 | 1016 | 10 | O 14.8 | |
| Ieri h: 10:53 | Sereno | 27 | 15 | 47 | 1017 | 10 | O/SO 7.4 | |



